Time,TemperatureF,DewpointF,PressureIn,WindDirection,WindDirectionDegrees,WindSpeedMPH,WindSpeedGustMPH,Humidity,HourlyPrecipIn,Conditions,Clouds,dailyrainin,SoftwareType,DateUTC
2013-07-05 07:20:00,68.0,66.2,30.05,NNW,338,0.0,3.0,94,0.00,,SCT041,0.01,VWS V14.00,2013-07-05 11:20:00,
2013-07-05 07:32:00,67.6,65.5,30.06,NNW,333,0.0,0.0,93,0.00,,SCT041,0.01,VWS V14.00,2013-07-05 11:32:00,
2013-07-05 07:37:00,67.7,65.9,30.06,NNW,333,0.0,0.0,94,0.00,,SCT041,0.01,VWS V14.00,2013-07-05 11:37:00,
2013-07-05 07:42:00,67.7,65.9,30.06,NNW,333,0.0,0.0,94,0.00,,SCT041,0.01,VWS V14.00,2013-07-05 11:42:00,
2013-07-05 07:47:00,67.8,66.0,30.05,NNW,333,0.0,0.0,94,0.00,,SCT041,0.01,VWS V14.00,2013-07-05 11:47:00,
2013-07-05 07:52:00,67.9,66.1,30.05,NNW,333,0.0,0.0,94,0.00,,SCT041,0.01,VWS V14.00,2013-07-05 11:52:00,
2013-07-05 07:58:00,67.9,66.1,30.05,NNW,333,0.0,0.0,94,0.00,,SCT041,0.01,VWS V14.00,2013-07-05 11:58:00,
2013-07-05 08:03:00,68.0,66.2,30.05,NNW,333,0.0,0.0,94,0.00,,BKN120,0.01,VWS V14.00,2013-07-05 12:03:00,
2013-07-05 08:08:00,68.1,66.3,30.05,NNW,333,0.0,0.0,94,0.01,,BKN120,0.02,VWS V14.00,2013-07-05 12:08:00,
2013-07-05 08:13:00,68.2,66.4,30.05,NNW,333,0.0,0.0,94,0.01,,BKN120,0.02,VWS V14.00,2013-07-05 12:13:00,
2013-07-05 08:18:00,68.4,66.6,30.05,NNW,333,0.0,0.0,94,0.01,,BKN120,0.02,VWS V14.00,2013-07-05 12:18:00,
2013-07-05 08:23:00,68.5,66.7,30.05,NNW,333,0.0,1.0,94,0.01,,BKN120,0.02,VWS V14.00,2013-07-05 12:23:00,
2013-07-05 08:28:00,68.5,66.7,30.06,NNW,333,0.0,0.0,94,0.01,,BKN120,0.02,VWS V14.00,2013-07-05 12:28:00,
2013-07-05 08:33:00,68.5,66.7,30.06,NNW,333,0.0,1.0,94,0.01,,BKN120,0.02,VWS V14.00,2013-07-05 12:33:00,
2013-07-05 08:38:00,68.4,66.6,30.07,NNW,333,0.0,0.0,94,0.01,,BKN120,0.02,VWS V14.00,2013-07-05 12:38:00,
2013-07-05 08:43:00,68.6,66.8,30.07,NNW,333,0.0,1.0,94,0.01,,BKN120,0.02,VWS V14.00,2013-07-05 12:43:00,
2013-07-05 08:48:00,68.8,67.0,30.07,NNW,333,0.0,1.0,94,0.01,,BKN120,0.02,VWS V14.00,2013-07-05 12:48:00,
2013-07-05 08:54:00,68.9,66.8,30.07,NNW,333,0.0,3.0,93,0.01,,BKN120,0.02,VWS V14.00,2013-07-05 12:54:00,
2013-07-05 08:59:00,69.0,66.9,30.08,NNW,333,0.0,0.0,93,0.01,,SCT120,0.02,VWS V14.00,2013-07-05 12:59:00,
2013-07-05 09:04:00,69.2,67.1,30.08,NNW,333,0.0,1.0,93,0.01,,SCT120,0.02,VWS V14.00,2013-07-05 13:04:00,
2013-07-05 09:09:00,69.4,67.3,30.08,NNW,333,0.0,0.0,93,0.00,,SCT120,0.02,VWS V14.00,2013-07-05 13:09:00,
2013-07-05 09:14:00,69.7,67.3,30.08,NNW,333,0.0,2.0,92,0.00,,SCT120,0.02,VWS V14.00,2013-07-05 13:14:00,
2013-07-05 09:19:00,69.8,67.4,30.08,NNW,333,0.0,0.0,92,0.00,,SCT120,0.02,VWS V14.00,2013-07-05 13:19:00,
2013-07-05 09:24:00,69.9,67.2,30.08,NNW,333,0.0,2.0,91,0.00,,SCT120,0.02,VWS V14.00,2013-07-05 13:24:00,
2013-07-05 09:29:00,69.8,67.1,30.09,NNW,333,0.0,0.0,91,0.00,,SCT120,0.02,VWS V14.00,2013-07-05 13:29:00,
2013-07-05 09:34:00,69.9,66.8,30.08,NNW,333,0.0,2.0,90,0.00,,SCT120,0.02,VWS V14.00,2013-07-05 13:34:00,
2013-07-05 09:39:00,70.0,66.9,30.09,NNW,333,0.0,2.0,90,0.00,,SCT120,0.02,VWS V14.00,2013-07-05 13:39:00,
2013-07-05 09:44:00,70.1,66.7,30.09,NNW,333,0.0,3.0,89,0.00,,SCT120,0.02,VWS V14.00,2013-07-05 13:44:00,
2013-07-05 09:49:00,70.1,66.4,30.09,NNW,333,1.0,2.0,88,0.00,,SCT120,0.02,VWS V14.00,2013-07-05 13:49:00,
2013-07-05 09:54:00,70.4,66.7,30.09,NNW,333,0.0,2.0,88,0.00,,SCT120,0.02,VWS V14.00,2013-07-05 13:54:00,
2013-07-05 09:59:00,70.9,67.2,30.09,NNW,333,2.0,3.0,88,0.00,,BKN025,0.02,VWS V14.00,2013-07-05 13:59:00,
2013-07-05 10:04:00,71.3,67.2,30.08,NNW,333,0.0,3.0,87,0.00,,BKN025,0.02,VWS V14.00,2013-07-05 14:04:00,
2013-07-05 10:09:00,71.5,66.8,30.09,NNW,333,1.0,3.0,85,0.00,,BKN025,0.02,VWS V14.00,2013-07-05 14:09:00,
2013-07-05 10:14:00,71.7,66.9,30.09,NNW,333,1.0,3.0,85,0.00,,BKN025,0.02,VWS V14.00,2013-07-05 14:14:00,
2013-07-05 10:19:00,72.3,67.5,30.08,NNW,333,0.0,0.0,85,0.00,,BKN025,0.02,VWS V14.00,2013-07-05 14:19:00,
2013-07-05 10:24:00,72.7,67.6,30.08,NNW,333,0.0,2.0,84,0.00,,BKN025,0.02,VWS V14.00,2013-07-05 14:24:00,
2013-07-05 10:29:00,72.9,67.1,30.08,NNW,333,0.0,1.0,82,0.00,,OVC055,0.02,VWS V14.00,2013-07-05 14:29:00,
2013-07-05 10:34:00,73.0,66.8,30.08,NNW,333,0.0,3.0,81,0.00,,OVC055,0.02,VWS V14.00,2013-07-05 14:34:00,
2013-07-05 10:39:00,73.5,67.7,30.08,NNW,333,0.0,0.0,82,0.00,,OVC055,0.02,VWS V14.00,2013-07-05 14:39:00,
2013-07-05 10:44:00,74.0,67.4,30.08,NNW,333,0.0,3.0,80,0.00,,OVC055,0.02,VWS V14.00,2013-07-05 14:44:00,
2013-07-05 10:49:00,74.4,67.5,30.08,NNW,327,0.0,1.0,79,0.00,,OVC055,0.02,VWS V14.00,2013-07-05 14:49:00,
2013-07-05 10:54:00,75.2,68.2,30.08,NW,313,0.0,3.0,79,0.00,,OVC055,0.02,VWS V14.00,2013-07-05 14:54:00,
2013-07-05 11:00:00,75.5,67.8,30.09,WSW,242,0.0,3.0,77,0.00,,SCT015,0.02,VWS V14.00,2013-07-05 15:00:00,
2013-07-05 11:05:00,75.9,68.2,30.08,WSW,241,0.0,3.0,77,0.00,,SCT015,0.02,VWS V14.00,2013-07-05 15:05:00,
2013-07-05 11:10:00,76.3,67.8,30.08,WSW,241,1.0,2.0,75,0.00,,SCT015,0.02,VWS V14.00,2013-07-05 15:10:00,
2013-07-05 11:15:00,76.6,66.9,30.09,WSW,242,3.0,4.0,72,0.00,,SCT015,0.02,VWS V14.00,2013-07-05 15:15:00,
2013-07-05 11:20:00,76.9,68.4,30.08,West,268,0.0,1.0,75,0.00,,SCT015,0.02,VWS V14.00,2013-07-05 15:20:00,
2013-07-05 11:25:00,77.0,67.7,30.09,West,267,0.0,4.0,73,0.00,,SCT015,0.02,VWS V14.00,2013-07-05 15:25:00,
2013-07-05 11:30:00,77.3,67.6,30.09,West,267,0.0,0.0,72,0.00,,SCT015,0.02,VWS V14.00,2013-07-05 15:30:00,
2013-07-05 11:35:00,77.5,67.8,30.09,West,267,0.0,1.0,72,0.00,,SCT015,0.02,VWS V14.00,2013-07-05 15:35:00,
2013-07-05 11:40:00,77.3,67.2,30.09,West,267,0.0,2.0,71,0.00,,SCT015,0.02,VWS V14.00,2013-07-05 15:40:00,
2013-07-05 11:49:00,77.5,66.9,30.09,West,267,0.0,0.0,70,0.00,,SCT015,0.02,VWS V14.00,2013-07-05 15:49:00,
2013-07-05 11:54:00,78.0,68.2,30.09,East,91,4.0,4.0,72,0.00,,SCT015,0.02,VWS V14.00,2013-07-05 15:54:00,
2013-07-05 11:59:00,78.7,66.8,30.09,East,91,0.0,0.0,67,0.00,,FEW025,0.02,VWS V14.00,2013-07-05 15:59:00,
2013-07-05 12:04:00,79.2,68.6,30.09,East,93,0.0,1.0,70,0.00,,FEW025,0.02,VWS V14.00,2013-07-05 16:04:00,
2013-07-05 12:09:00,79.8,69.6,30.09,East,96,0.0,1.0,71,0.00,,FEW025,0.02,VWS V14.00,2013-07-05 16:09:00,
2013-07-05 12:14:00,80.3,67.9,30.08,ESE,121,5.0,5.0,66,0.00,,FEW025,0.02,VWS V14.00,2013-07-05 16:14:00,
2013-07-05 12:19:00,80.5,68.5,30.08,ESE,116,2.0,4.0,67,0.00,,FEW025,0.02,VWS V14.00,2013-07-05 16:19:00,
2013-07-05 12:24:00,80.5,69.8,30.08,ESE,115,3.0,4.0,70,0.00,,FEW025,0.02,VWS V14.00,2013-07-05 16:24:00,
2013-07-05 12:29:00,80.9,68.5,30.08,East,101,1.0,1.0,66,0.00,,FEW025,0.02,VWS V14.00,2013-07-05 16:29:00,
2013-07-05 12:34:00,81.0,68.1,30.08,East,87,0.0,4.0,65,0.00,,FEW025,0.02,VWS V14.00,2013-07-05 16:34:00,
2013-07-05 12:39:00,80.6,68.6,30.08,NNE,22,4.0,5.0,67,0.00,,FEW025,0.02,VWS V14.00,2013-07-05 16:39:00,
2013-07-05 12:44:00,79.5,68.0,30.09,NE,40,0.0,5.0,68,0.00,,FEW025,0.02,VWS V14.00,2013-07-05 16:44:00,
2013-07-05 12:49:00,78.7,67.7,30.08,East,83,0.0,3.0,69,0.00,,FEW025,0.02,VWS V14.00,2013-07-05 16:49:00,
2013-07-05 12:54:00,78.1,67.9,30.08,East,80,0.0,3.0,71,0.00,,FEW025,0.02,VWS V14.00,2013-07-05 16:54:00,
2013-07-05 12:59:00,77.8,68.1,30.09,NE,34,0.0,4.0,72,0.00,,SCT034,0.02,VWS V14.00,2013-07-05 16:59:00,
2013-07-05 13:04:00,77.5,67.8,30.09,NNE,33,0.0,4.0,72,0.00,,SCT034,0.02,VWS V14.00,2013-07-05 17:04:00,
2013-07-05 13:09:00,77.6,68.3,30.08,NNE,33,0.0,0.0,73,0.00,,SCT034,0.02,VWS V14.00,2013-07-05 17:09:00,
2013-07-05 13:14:00,77.7,68.0,30.08,NNE,33,0.0,1.0,72,0.00,,SCT034,0.02,VWS V14.00,2013-07-05 17:14:00,
2013-07-05 13:19:00,78.1,67.5,30.08,NNE,33,0.0,0.0,70,0.00,,SCT034,0.02,VWS V14.00,2013-07-05 17:19:00,
2013-07-05 13:24:00,78.7,67.7,30.08,NE,42,0.0,2.0,69,0.00,,SCT034,0.02,VWS V14.00,2013-07-05 17:24:00,
2013-07-05 13:29:00,79.1,66.8,30.08,East,101,0.0,1.0,66,0.00,,SCT034,0.02,VWS V14.00,2013-07-05 17:29:00,
2013-07-05 13:34:00,79.7,68.2,30.07,East,101,0.0,1.0,68,0.00,,SCT034,0.02,VWS V14.00,2013-07-05 17:34:00,
2013-07-05 13:39:00,80.2,66.9,30.07,East,101,0.0,1.0,64,0.00,,SCT034,0.02,VWS V14.00,2013-07-05 17:39:00,
2013-07-05 13:44:00,80.4,65.7,30.07,East,101,0.0,3.0,61,0.00,,SCT034,0.02,VWS V14.00,2013-07-05 17:44:00,
2013-07-05 13:49:00,80.7,67.4,30.08,East,101,2.0,3.0,64,0.00,,SCT034,0.02,VWS V14.00,2013-07-05 17:49:00,
2013-07-05 13:54:00,80.8,67.0,30.07,East,101,0.0,3.0,63,0.00,,SCT034,0.02,VWS V14.00,2013-07-05 17:54:00,
2013-07-05 13:59:00,81.1,69.6,30.07,East,101,0.0,0.0,68,0.00,,FEW034,0.02,VWS V14.00,2013-07-05 17:59:00,
2013-07-05 14:04:00,81.7,67.9,30.07,East,100,1.0,3.0,63,0.00,,FEW034,0.02,VWS V14.00,2013-07-05 18:04:00,
2013-07-05 14:09:00,81.9,66.7,30.07,East,100,0.0,1.0,60,0.00,,FEW034,0.02,VWS V14.00,2013-07-05 18:09:00,
2013-07-05 14:14:00,82.2,67.9,30.07,East,99,0.0,4.0,62,0.00,,FEW034,0.02,VWS V14.00,2013-07-05 18:14:00,
2013-07-05 14:19:00,82.1,67.3,30.07,East,98,0.0,1.0,61,0.00,,FEW034,0.02,VWS V14.00,2013-07-05 18:19:00,
2013-07-05 14:24:00,82.6,69.2,30.07,East,98,0.0,3.0,64,0.00,,FEW034,0.02,VWS V14.00,2013-07-05 18:24:00,
2013-07-05 14:29:00,82.8,66.5,30.07,ESE,112,0.0,1.0,58,0.00,,FEW034,0.02,VWS V14.00,2013-07-05 18:29:00,
2013-07-05 14:34:00,83.0,69.1,30.06,ESE,112,3.0,4.0,63,0.00,,FEW034,0.02,VWS V14.00,2013-07-05 18:34:00,
2013-07-05 14:39:00,83.2,66.9,30.06,ESE,112,0.0,0.0,58,0.00,,FEW034,0.02,VWS V14.00,2013-07-05 18:39:00,
2013-07-05 14:44:00,83.4,67.6,30.06,ESE,118,0.0,3.0,59,0.00,,FEW034,0.02,VWS V14.00,2013-07-05 18:44:00,
2013-07-05 14:49:00,83.3,67.5,30.06,ESE,118,0.0,0.0,59,0.00,,FEW034,0.02,VWS V14.00,2013-07-05 18:49:00,
2013-07-05 14:54:00,83.3,68.0,30.06,ESE,118,0.0,3.0,60,0.00,,FEW034,0.02,VWS V14.00,2013-07-05 18:54:00,
2013-07-05 14:59:00,83.0,68.2,30.06,ESE,118,0.0,0.0,61,0.00,,OVC120,0.02,VWS V14.00,2013-07-05 18:59:00,
2013-07-05 15:04:00,82.9,68.1,30.06,ESE,118,0.0,1.0,61,0.00,,OVC120,0.02,VWS V14.00,2013-07-05 19:04:00,
2013-07-05 15:09:00,82.9,68.1,30.06,SE,126,0.0,3.0,61,0.00,,OVC120,0.02,VWS V14.00,2013-07-05 19:09:00,
2013-07-05 15:14:00,82.5,69.1,30.06,SE,126,0.0,3.0,64,0.00,,OVC120,0.02,VWS V14.00,2013-07-05 19:14:00,
2013-07-05 15:19:00,81.8,68.9,30.06,ESE,115,0.0,0.0,65,0.00,,OVC120,0.02,VWS V14.00,2013-07-05 19:19:00,
2013-07-05 15:24:00,81.1,68.7,30.06,ESE,105,0.0,6.0,66,0.00,,OVC120,0.02,VWS V14.00,2013-07-05 19:24:00,
2013-07-05 15:29:00,80.5,69.0,30.06,ESE,105,0.0,0.0,68,0.00,,OVC120,0.02,VWS V14.00,2013-07-05 19:29:00,
2013-07-05 15:34:00,80.3,69.2,30.06,ESE,105,0.0,1.0,69,0.00,,OVC120,0.02,VWS V14.00,2013-07-05 19:34:00,
2013-07-05 15:39:00,80.7,68.7,30.06,ESE,109,0.0,1.0,67,0.00,,OVC120,0.02,VWS V14.00,2013-07-05 19:39:00,
2013-07-05 15:44:00,80.7,69.2,30.06,ESE,109,0.0,5.0,68,0.00,,OVC120,0.02,VWS V14.00,2013-07-05 19:44:00,
2013-07-05 15:49:00,80.8,69.7,30.06,ESE,119,0.0,1.0,69,0.00,,OVC120,0.02,VWS V14.00,2013-07-05 19:49:00,
2013-07-05 15:54:00,80.8,69.3,30.05,SSE,150,1.0,3.0,68,0.00,,OVC120,0.02,VWS V14.00,2013-07-05 19:54:00,
2013-07-05 15:59:00,80.4,70.1,30.05,NNE,33,1.0,1.0,71,0.00,,BKN095,0.02,VWS V14.00,2013-07-05 19:59:00,
2013-07-05 16:04:00,80.1,70.7,30.05,SE,136,0.0,3.0,73,0.00,,BKN095,0.02,VWS V14.00,2013-07-05 20:04:00,
2013-07-05 16:09:00,80.4,71.0,30.04,SSE,150,0.0,4.0,73,0.00,,BKN095,0.02,VWS V14.00,2013-07-05 20:09:00,
2013-07-05 16:14:00,80.8,70.5,30.05,SSE,150,0.0,4.0,71,0.00,,BKN095,0.02,VWS V14.00,2013-07-05 20:14:00,
2013-07-05 16:19:00,81.1,71.2,30.05,SSE,153,0.0,0.0,72,0.00,,BKN095,0.02,VWS V14.00,2013-07-05 20:19:00,
2013-07-05 16:24:00,81.1,70.0,30.05,ESE,119,0.0,5.0,69,0.00,,BKN095,0.02,VWS V14.00,2013-07-05 20:24:00,
2013-07-05 16:29:00,81.1,70.8,30.05,ESE,105,0.0,0.0,71,0.00,,BKN095,0.02,VWS V14.00,2013-07-05 20:29:00,
2013-07-05 16:34:00,81.0,70.7,30.05,South,190,0.0,5.0,71,0.00,,BKN095,0.02,VWS V14.00,2013-07-05 20:34:00,
2013-07-05 16:39:00,81.1,70.4,30.04,SSW,204,3.0,3.0,70,0.00,,BKN095,0.02,VWS V14.00,2013-07-05 20:39:00,
2013-07-05 16:44:00,81.2,70.1,30.04,ENE,74,3.0,4.0,69,0.00,,BKN095,0.02,VWS V14.00,2013-07-05 20:44:00,
2013-07-05 16:49:00,80.9,70.2,30.03,ESE,106,0.0,3.0,70,0.00,,BKN095,0.02,VWS V14.00,2013-07-05 20:49:00,
2013-07-05 16:54:00,80.5,69.0,30.03,ESE,107,0.0,3.0,68,0.00,,BKN095,0.02,VWS V14.00,2013-07-05 20:54:00,
2013-07-05 16:59:00,80.4,69.7,30.04,SE,142,2.0,4.0,70,0.00,,FEW060,0.02,VWS V14.00,2013-07-05 20:59:00,
2013-07-05 17:04:00,80.5,69.8,30.04,SE,146,0.0,4.0,70,0.00,,FEW060,0.02,VWS V14.00,2013-07-05 21:04:00,
2013-07-05 17:09:00,80.5,69.4,30.04,South,176,0.0,0.0,69,0.00,,FEW060,0.02,VWS V14.00,2013-07-05 21:09:00,
2013-07-05 17:14:00,80.5,69.4,30.04,South,178,0.0,0.0,69,0.00,,FEW060,0.02,VWS V14.00,2013-07-05 21:14:00,
2013-07-05 17:19:00,80.2,69.1,30.04,SE,125,0.0,3.0,69,0.00,,FEW060,0.02,VWS V14.00,2013-07-05 21:19:00,
2013-07-05 17:24:00,80.1,69.0,30.04,East,92,0.0,4.0,69,0.00,,FEW060,0.02,VWS V14.00,2013-07-05 21:24:00,
2013-07-05 17:29:00,79.8,68.3,30.04,East,90,1.0,2.0,68,0.00,,FEW060,0.02,VWS V14.00,2013-07-05 21:29:00,
2013-07-05 17:34:00,79.6,68.1,30.04,ESE,123,0.0,3.0,68,0.00,,FEW060,0.02,VWS V14.00,2013-07-05 21:34:00,
2013-07-05 17:39:00,79.9,68.8,30.03,East,91,0.0,0.0,69,0.00,,FEW060,0.02,VWS V14.00,2013-07-05 21:39:00,
2013-07-05 17:44:00,80.2,68.7,30.03,East,91,0.0,1.0,68,0.00,,FEW060,0.02,VWS V14.00,2013-07-05 21:44:00,
2013-07-05 17:49:00,80.6,68.6,30.03,East,92,0.0,0.0,67,0.00,,FEW060,0.02,VWS V14.00,2013-07-05 21:49:00,
2013-07-05 17:54:00,81.1,69.1,30.03,SE,145,0.0,3.0,67,0.00,,FEW060,0.02,VWS V14.00,2013-07-05 21:54:00,
2013-07-05 17:55:00,81.1,69.1,30.03,SE,145,0.0,3.0,67,0.00,,FEW060,0.02,VWS V14.00,2013-07-05 21:55:00,
2013-07-05 18:00:00,81.2,67.9,30.03,ESE,114,0.0,0.0,64,0.00,,SCT090,0.02,VWS V14.00,2013-07-05 22:00:00,
2013-07-05 18:05:00,81.2,68.8,30.03,ESE,115,0.0,0.0,66,0.00,,SCT090,0.02,VWS V14.00,2013-07-05 22:05:00,
2013-07-05 18:10:00,81.0,69.0,30.04,ESE,115,0.0,0.0,67,0.00,,SCT090,0.02,VWS V14.00,2013-07-05 22:10:00,
2013-07-05 18:15:00,81.1,69.1,30.04,ESE,115,0.0,0.0,67,0.00,,SCT090,0.02,VWS V14.00,2013-07-05 22:15:00,
2013-07-05 18:20:00,81.4,69.4,30.03,ESE,114,0.0,0.0,67,0.00,,SCT090,0.02,VWS V14.00,2013-07-05 22:20:00,
2013-07-05 18:24:00,81.6,70.0,30.03,South,169,0.0,3.0,68,0.00,,SCT090,0.02,VWS V14.00,2013-07-05 22:24:00,
2013-07-05 18:29:00,81.9,69.0,30.02,South,171,0.0,0.0,65,0.00,,SCT090,0.02,VWS V14.00,2013-07-05 22:29:00,
2013-07-05 18:34:00,81.9,69.4,30.02,South,171,0.0,1.0,66,0.00,,SCT090,0.02,VWS V14.00,2013-07-05 22:34:00,
2013-07-05 18:39:00,81.6,69.2,30.02,South,178,0.0,0.0,66,0.00,,SCT090,0.02,VWS V14.00,2013-07-05 22:39:00,